Time;durP1;ratioP1;P1;durP2;ratioP2;P2;SDS_P1;SDS_P2;PMS_P1;PMS_P2;Temp;Humidity;BMP_temperature;BMP_pressure;BME280_temperature;BME280_humidity;BME280_pressure;Samples;Min_cycle;Max_cycle;Signal;HPM_P1;HPM_P2
2022/05/08 00:00:18;;;;;;;10.80;7.80;;;;;;;15.76;61.54;99596.00;4980083;28;20476;-79
2022/05/08 00:02:44;;;;;;;11.85;7.93;;;;;;;15.71;61.58;99587.91;4976286;28;20042;-80
2022/05/08 00:05:12;;;;;;;12.20;7.22;;;;;;;15.74;61.16;99590.09;4992348;28;20022;-80
2022/05/08 00:07:37;;;;;;;10.32;7.18;;;;;;;15.74;61.24;99595.47;5006604;28;20060;-80
2022/05/08 00:10:03;;;;;;;9.30;7.13;;;;;;;15.68;61.52;99586.56;5023691;28;20049;-79
2022/05/08 00:12:28;;;;;;;7.88;6.68;;;;;;;15.67;61.66;99590.34;4987985;28;20493;-80
2022/05/08 00:14:53;;;;;;;11.05;8.13;;;;;;;15.69;61.96;99598.13;5026119;28;20052;-80
2022/05/08 00:17:19;;;;;;;11.60;8.30;;;;;;;15.64;61.72;99587.34;5029085;28;20036;-80
2022/05/08 00:19:47;;;;;;;14.15;8.20;;;;;;;15.64;61.72;99596.22;4992721;28;20037;-80
2022/05/08 00:22:13;;;;;;;10.20;7.65;;;;;;;15.59;61.71;99598.09;5024389;28;20370;-79
2022/05/08 00:24:38;;;;;;;14.70;8.02;;;;;;;15.56;61.85;99598.63;4987461;28;20094;-80
2022/05/08 00:27:04;;;;;;;9.63;7.60;;;;;;;15.58;61.48;99599.97;4993711;28;20053;-80
2022/05/08 00:29:29;;;;;;;11.95;7.68;;;;;;;15.55;61.46;99589.72;4989231;28;20033;-80
2022/05/08 00:31:55;;;;;;;11.30;7.68;;;;;;;15.55;61.51;99588.94;4984989;28;20049;-80
2022/05/08 00:34:20;;;;;;;11.02;7.88;;;;;;;15.50;61.92;99599.66;5007766;28;20222;-80
2022/05/08 00:36:45;;;;;;;11.52;7.63;;;;;;;15.48;61.71;99591.88;4986488;28;20033;-80
2022/05/08 00:39:11;;;;;;;11.45;7.80;;;;;;;15.52;61.49;99603.72;5005139;28;20064;-80
2022/05/08 00:41:36;;;;;;;8.80;7.75;;;;;;;15.53;61.68;99599.16;5023794;28;20113;-80
2022/05/08 00:44:03;;;;;;;12.27;8.88;;;;;;;15.47;61.86;99597.50;5029490;28;20052;-80
2022/05/08 00:46:29;;;;;;;10.35;8.35;;;;;;;15.45;62.23;99600.44;5011104;28;20091;-80
2022/05/08 00:48:55;;;;;;;9.63;8.30;;;;;;;15.45;61.89;99605.00;4983747;28;20489;-79
2022/05/08 00:51:20;;;;;;;10.30;8.38;;;;;;;15.41;62.18;99607.41;4989418;28;20034;-79
2022/05/08 00:53:49;;;;;;;10.80;8.05;;;;;;;15.44;62.58;99611.47;5007623;28;20034;-79
2022/05/08 00:56:15;;;;;;;13.20;8.00;;;;;;;15.38;62.43;99599.84;5001900;28;20079;-80
2022/05/08 00:58:43;;;;;;;8.48;7.00;;;;;;;15.36;62.39;99604.66;5008365;28;20429;-80
2022/05/08 01:01:10;;;;;;;9.02;7.68;;;;;;;15.44;62.27;99611.47;5008540;28;20026;-79
2022/05/08 01:03:36;;;;;;;12.30;7.65;;;;;;;15.33;62.29;99602.50;5012350;28;20644;-80
2022/05/08 01:06:08;;;;;;;14.25;8.38;;;;;;;15.33;62.41;99604.41;5025919;28;20065;-80
2022/05/08 01:08:36;;;;;;;11.73;8.57;;;;;;;15.32;62.25;99603.59;4991560;28;20418;-80
2022/05/08 01:11:03;;;;;;;12.02;7.65;;;;;;;15.35;62.57;99604.94;5008287;28;20538;-79
2022/05/08 01:13:28;;;;;;;12.38;7.65;;;;;;;15.26;62.55;99593.88;5006874;28;20087;-79
2022/05/08 01:15:56;;;;;;;10.63;7.82;;;;;;;15.30;62.82;99605.72;4973345;28;20056;-79
2022/05/08 01:18:22;;;;;;;9.15;7.15;;;;;;;15.30;62.52;99602.22;5009591;28;20068;-79
2022/05/08 01:20:47;;;;;;;10.48;7.43;;;;;;;15.29;62.22;99606.78;5025452;28;20477;-79
2022/05/08 01:23:15;;;;;;;11.57;7.97;;;;;;;15.26;62.87;99603.81;4999800;28;20045;-79
2022/05/08 01:25:53;;;;;;;10.32;7.53;;;;;;;15.24;62.82;99614.84;5023071;28;20037;-79
2022/05/08 01:28:20;;;;;;;10.63;7.50;;;;;;;15.22;63.03;99625.03;5018549;28;20101;-79
2022/05/08 01:30:52;;;;;;;10.57;7.32;;;;;;;15.18;63.09;99621.22;4988633;28;20052;-79
2022/05/08 01:33:18;;;;;;;9.05;7.80;;;;;;;15.17;63.21;99624.19;5007369;28;20057;-79
2022/05/08 01:35:44;;;;;;;10.85;7.63;;;;;;;15.16;63.17;99622.59;4991107;28;20065;-79
2022/05/08 01:38:12;;;;;;;8.40;6.68;;;;;;;15.16;63.06;99628.75;5019015;28;20045;-80
2022/05/08 01:40:38;;;;;;;9.77;6.93;;;;;;;15.14;62.77;99630.88;5005980;28;20036;-79
2022/05/08 01:43:03;;;;;;;10.30;6.53;;;;;;;15.11;62.82;99628.75;5023768;28;20034;-79
2022/05/08 01:45:30;;;;;;;9.93;6.57;;;;;;;15.13;62.61;99626.59;5006992;28;20037;-79
2022/05/08 01:50:39;;;;;;;12.88;7.35;;;;;;;15.15;63.02;99635.22;5005282;28;20443;-79
2022/05/08 01:53:05;;;;;;;8.98;7.18;;;;;;;15.03;63.25;99627.31;5022595;28;20025;-79
2022/05/08 01:55:30;;;;;;;12.10;7.60;;;;;;;15.08;63.21;99626.56;5002867;28;20120;-80
2022/05/08 01:57:56;;;;;;;11.55;6.65;;;;;;;15.08;63.20;99634.63;4990915;28;20034;-80
2022/05/08 02:00:22;;;;;;;11.57;6.65;;;;;;;15.09;63.15;99636.25;5026037;28;20099;-79
2022/05/08 02:02:49;;;;;;;9.40;7.25;;;;;;;15.02;63.10;99639.16;5005600;28;20053;-80
2022/05/08 02:05:16;;;;;;;7.88;6.18;;;;;;;15.09;63.14;99636.25;5006785;28;20159;-79
2022/05/08 02:07:46;;;;;;;10.15;7.95;;;;;;;15.08;63.38;99649.94;5023488;28;20052;-80
2022/05/08 02:10:16;;;;;;;10.23;6.75;;;;;;;15.08;62.80;99647.25;5017061;28;20029;-79
2022/05/08 02:12:43;;;;;;;7.93;6.22;;;;;;;15.10;63.03;99645.09;5004279;28;20052;-79
2022/05/08 02:15:09;;;;;;;8.13;5.90;;;;;;;15.08;62.96;99640.00;5005861;28;20029;-79
2022/05/08 02:17:35;;;;;;;12.93;7.93;;;;;;;15.01;63.29;99644.78;5008648;28;20041;-79
2022/05/08 02:20:01;;;;;;;8.43;5.85;;;;;;;15.08;62.99;99645.38;5003613;28;20042;-79
2022/05/08 02:22:27;;;;;;;11.43;6.68;;;;;;;15.12;63.01;99645.66;4991355;28;20025;-79
2022/05/08 02:24:52;;;;;;;8.13;6.40;;;;;;;15.01;63.43;99653.66;5022487;28;20037;-79
2022/05/08 02:27:17;;;;;;;9.68;6.50;;;;;;;15.05;63.00;99653.94;5002298;28;20112;-79
2022/05/08 02:29:48;;;;;;;9.23;6.68;;;;;;;15.05;63.21;99658.53;4972428;28;20072;-79
2022/05/08 02:32:13;;;;;;;9.18;6.35;;;;;;;15.01;62.96;99658.22;4995791;28;20017;-79
2022/05/08 02:34:39;;;;;;;9.98;6.13;;;;;;;14.98;63.43;99664.13;4986253;28;20504;-79
2022/05/08 02:37:04;;;;;;;6.85;5.80;;;;;;;14.96;63.47;99658.97;5025658;28;20069;-79
2022/05/08 02:39:30;;;;;;;6.15;5.55;;;;;;;14.95;63.38;99657.38;5007253;28;20025;-79
2022/05/08 02:41:55;;;;;;;9.13;6.55;;;;;;;14.92;62.94;99652.50;5008074;28;20045;-79
2022/05/08 02:44:20;;;;;;;7.90;5.93;;;;;;;14.91;63.23;99648.22;5024482;28;20146;-79
2022/05/08 02:46:45;;;;;;;13.60;7.78;;;;;;;14.88;62.97;99656.78;4997955;28;20603;-79
2022/05/08 02:49:11;;;;;;;12.55;6.68;;;;;;;14.80;63.41;99659.94;4972231;28;20331;-79
2022/05/08 02:51:36;;;;;;;10.95;6.78;;;;;;;14.86;63.42;99661.59;5005593;28;20041;-79
2022/05/08 02:54:01;;;;;;;7.45;5.57;;;;;;;14.82;63.38;99657.81;5021732;28;20037;-79
2022/05/08 02:59:11;;;;;;;7.47;5.63;;;;;;;14.81;63.33;99671.47;5017418;28;20076;-79
2022/05/08 03:01:37;;;;;;;9.18;6.40;;;;;;;14.85;63.19;99667.25;4992632;28;20037;-79
2022/05/08 03:04:02;;;;;;;7.38;5.32;;;;;;;14.85;63.08;99670.72;4986905;28;20033;-79
2022/05/08 03:06:27;;;;;;;9.75;6.72;;;;;;;14.84;62.96;99665.59;5005530;28;20032;-79
2022/05/08 03:08:53;;;;;;;8.90;6.40;;;;;;;14.72;63.95;99662.28;5008086;28;20033;-79
2022/05/08 03:11:28;;;;;;;8.07;5.75;;;;;;;14.72;64.00;99660.41;5024191;28;20033;-79
2022/05/08 03:13:54;;;;;;;10.93;5.78;;;;;;;14.73;63.27;99664.72;5007804;28;20067;-79
2022/05/08 03:16:21;;;;;;;7.85;6.35;;;;;;;14.70;63.58;99669.81;5000769;28;20064;-79
2022/05/08 03:18:47;;;;;;;7.20;5.90;;;;;;;14.73;63.15;99670.09;5002686;28;20029;-79
2022/05/08 03:21:13;;;;;;;9.90;6.38;;;;;;;14.75;63.13;99670.66;5003864;28;20075;-79
2022/05/08 03:23:40;;;;;;;11.68;7.07;;;;;;;14.71;63.98;99677.59;4989214;28;20030;-79
2022/05/08 03:26:07;;;;;;;11.77;7.40;;;;;;;14.74;63.33;99673.59;5022993;28;20042;-79
2022/05/08 03:28:33;;;;;;;8.00;6.13;;;;;;;14.71;63.31;99684.84;5002890;28;20460;-79
2022/05/08 03:30:59;;;;;;;11.52;6.40;;;;;;;14.76;63.40;99687.59;5003878;28;20028;-80
2022/05/08 03:33:25;;;;;;;11.07;7.75;;;;;;;14.73;63.33;99688.09;4990652;28;20032;-80
2022/05/08 03:35:51;;;;;;;11.02;7.30;;;;;;;14.71;63.32;99684.84;4983837;28;20030;-79
2022/05/08 03:38:18;;;;;;;13.32;8.18;;;;;;;14.75;63.41;99686.78;5021136;28;20090;-80
2022/05/08 03:40:43;;;;;;;8.40;6.95;;;;;;;14.66;63.29;99688.28;5006939;28;20040;-79
2022/05/08 03:43:09;;;;;;;14.18;6.90;;;;;;;14.70;63.09;99691.31;5022111;28;20115;-80
2022/05/08 03:45:35;;;;;;;9.10;7.18;;;;;;;14.62;63.56;99687.19;5022774;28;20112;-79
2022/05/08 03:48:00;;;;;;;8.73;7.88;;;;;;;14.66;63.37;99688.28;5000226;28;20065;-80
2022/05/08 03:50:27;;;;;;;11.60;7.32;;;;;;;14.70;63.21;99692.09;4997707;28;20033;-79
2022/05/08 03:52:52;;;;;;;13.50;8.43;;;;;;;14.63;63.38;99688.00;4994912;28;20029;-79
2022/05/08 03:55:17;;;;;;;13.25;8.98;;;;;;;14.68;63.22;99691.53;4984879;28;20448;-79
2022/05/08 03:57:44;;;;;;;11.68;8.30;;;;;;;14.69;62.96;99695.84;5006910;28;20071;-79
2022/05/08 04:00:10;;;;;;;12.23;9.10;;;;;;;14.64;63.10;99695.78;5018428;28;20044;-79
2022/05/08 04:02:36;;;;;;;14.55;10.18;;;;;;;14.63;63.51;99694.19;5020959;28;20033;-79
2022/05/08 04:05:02;;;;;;;11.23;8.75;;;;;;;14.60;63.31;99692.00;5008611;28;20037;-80
2022/05/08 04:07:30;;;;;;;18.38;10.05;;;;;;;14.65;63.03;99704.69;4991633;28;20120;-79
2022/05/08 04:09:55;;;;;;;13.85;9.88;;;;;;;14.60;63.36;99702.75;5006838;28;20479;-79
2022/05/08 04:12:20;;;;;;;13.65;9.43;;;;;;;14.64;62.89;99705.72;5023056;28;20067;-79
2022/05/08 04:14:46;;;;;;;12.90;9.18;;;;;;;14.52;63.67;99705.91;5025986;28;20389;-79
2022/05/08 04:17:11;;;;;;;15.13;10.48;;;;;;;14.55;63.10;99705.38;5023534;28;20167;-79
2022/05/08 04:19:37;;;;;;;17.08;11.32;;;;;;;14.50;63.44;99705.34;4990226;28;20042;-79
2022/05/08 04:24:47;;;;;;;18.05;10.10;;;;;;;14.47;63.21;99702.31;5007984;28;20677;-79
2022/05/08 04:27:12;;;;;;;15.05;10.32;;;;;;;14.46;63.34;99712.25;4984440;28;20037;-79
2022/05/08 04:29:37;;;;;;;18.25;10.85;;;;;;;14.44;63.53;99710.91;4993855;28;20040;-79
2022/05/08 04:32:03;;;;;;;20.27;9.88;;;;;;;14.47;63.23;99716.56;4998017;28;20044;-79
2022/05/08 04:34:28;;;;;;;16.75;10.15;;;;;;;14.44;63.32;99717.06;5026162;28;20041;-79
2022/05/08 04:36:54;;;;;;;19.77;11.23;;;;;;;14.34;63.11;99719.66;5022674;28;20480;-79
2022/05/08 04:39:20;;;;;;;17.98;11.05;;;;;;;14.42;63.79;99731.81;5005508;28;20036;-79
2022/05/08 04:41:45;;;;;;;22.70;12.98;;;;;;;14.41;63.23;99725.66;5003438;28;20087;-79
2022/05/08 04:44:10;;;;;;;19.75;12.07;;;;;;;14.40;63.31;99734.75;4989111;28;20409;-79
2022/05/08 04:46:35;;;;;;;14.95;10.82;;;;;;;14.36;63.22;99728.28;5006623;28;20052;-79
2022/05/08 04:49:01;;;;;;;15.90;10.93;;;;;;;14.38;63.24;99744.13;5021638;28;20029;-79
2022/05/08 04:51:26;;;;;;;18.27;10.32;;;;;;;14.33;63.35;99736.03;5006039;28;20132;-79
2022/05/08 04:53:52;;;;;;;19.15;11.18;;;;;;;14.29;63.26;99738.38;5003517;28;20095;-79
2022/05/08 04:56:17;;;;;;;19.00;12.00;;;;;;;14.25;63.02;99730.00;5022651;28;20030;-80
2022/05/08 04:58:43;;;;;;;20.02;10.68;;;;;;;14.32;63.07;99743.28;5021855;28;20031;-80
2022/05/08 05:01:08;;;;;;;22.23;11.30;;;;;;;14.27;63.33;99735.09;5004370;28;20100;-80
2022/05/08 05:03:34;;;;;;;18.83;10.65;;;;;;;14.30;62.94;99734.66;4994398;28;20025;-80
2022/05/08 05:05:59;;;;;;;17.83;10.93;;;;;;;14.28;63.04;99737.53;5003551;28;20030;-79
2022/05/08 05:08:24;;;;;;;20.58;10.55;;;;;;;14.29;63.09;99738.38;5022793;28;20049;-79
2022/05/08 05:10:50;;;;;;;20.10;10.45;;;;;;;14.27;62.71;99746.66;4992796;28;20091;-79
2022/05/08 05:13:15;;;;;;;25.00;10.18;;;;;;;14.29;62.63;99749.13;4992060;28;20089;-80
2022/05/08 05:15:41;;;;;;;21.08;10.00;;;;;;;14.27;62.64;99752.03;5004299;28;20378;-79
2022/05/08 05:18:06;;;;;;;20.80;11.20;;;;;;;14.31;62.40;99752.38;4995558;28;20485;-80
2022/05/08 05:20:32;;;;;;;14.68;9.23;;;;;;;14.29;62.42;99762.56;4999423;28;20256;-79
2022/05/08 05:23:01;;;;;;;26.20;10.63;;;;;;;14.32;62.66;99759.38;4978383;28;20473;-80
2022/05/08 05:25:27;;;;;;;19.70;9.90;;;;;;;14.26;62.55;99768.41;5027557;28;20286;-79
2022/05/08 05:27:54;;;;;;;19.25;9.25;;;;;;;14.21;62.70;99762.97;5025696;28;20076;-79
2022/05/08 05:30:19;;;;;;;25.63;9.70;;;;;;;14.27;62.53;99768.16;5010936;28;20644;-79
2022/05/08 05:32:45;;;;;;;18.25;8.80;;;;;;;14.25;61.92;99769.47;5011928;28;20033;-79
2022/05/08 05:35:11;;;;;;;16.95;8.50;;;;;;;14.26;62.35;99765.72;4995657;28;20113;-79
2022/05/08 05:37:37;;;;;;;20.85;9.35;;;;;;;14.30;62.32;99771.44;5008648;28;20033;-79
2022/05/08 05:40:03;;;;;;;14.73;8.07;;;;;;;14.30;62.06;99774.94;5016191;28;20096;-79
2022/05/08 05:42:28;;;;;;;17.23;7.53;;;;;;;14.26;61.96;99777.25;5003832;28;20029;-79
2022/05/08 05:44:54;;;;;;;20.85;7.90;;;;;;;14.27;62.19;99778.91;5002128;28;20083;-79
2022/05/08 05:50:04;;;;;;;16.85;7.55;;;;;;;14.25;61.67;99783.72;5005263;28;20033;-80
2022/05/08 05:52:30;;;;;;;14.32;7.10;;;;;;;14.30;61.53;99788.38;5006948;28;20481;-80
2022/05/08 05:54:55;;;;;;;18.10;7.00;;;;;;;14.32;61.77;99790.78;4989722;28;20060;-80
2022/05/08 05:57:20;;;;;;;13.88;6.75;;;;;;;14.33;61.78;99792.44;5002620;28;20454;-80
2022/05/08 05:59:45;;;;;;;16.92;7.20;;;;;;;14.31;61.30;99787.28;4994023;28;20049;-80
2022/05/08 06:02:11;;;;;;;19.67;6.85;;;;;;;14.33;61.21;99787.84;5008474;28;20037;-80
2022/05/08 06:04:36;;;;;;;13.80;7.22;;;;;;;14.39;61.46;99786.06;5024594;28;20603;-79
2022/05/08 06:07:02;;;;;;;13.20;5.78;;;;;;;14.43;61.62;99788.00;5006364;28;20528;-79
2022/05/08 06:09:27;;;;;;;23.65;7.90;;;;;;;14.45;60.50;99795.78;5024786;28;20087;-81
2022/05/08 06:11:53;;;;;;;24.85;7.97;;;;;;;14.30;60.71;99793.72;4989836;28;20482;-80
2022/05/08 06:14:18;;;;;;;22.20;7.30;;;;;;;14.38;60.76;99804.03;5010148;28;20044;-80
2022/05/08 06:16:44;;;;;;;14.90;6.97;;;;;;;14.48;60.48;99806.84;5021336;28;20128;-80
2022/05/08 06:19:09;;;;;;;16.65;6.68;;;;;;;14.52;60.53;99797.25;5025302;28;20497;-80
2022/05/08 06:21:34;;;;;;;22.15;8.25;;;;;;;14.54;60.22;99808.53;5002647;28;20041;-81
2022/05/08 06:24:00;;;;;;;22.48;7.53;;;;;;;14.58;60.02;99808.84;4993576;28;20371;-81
2022/05/08 06:26:25;;;;;;;22.52;7.35;;;;;;;14.63;60.14;99806.22;4988610;28;20087;-81
2022/05/08 06:28:50;;;;;;;23.05;7.88;;;;;;;14.62;60.09;99808.09;5000026;28;20128;-81
2022/05/08 06:31:17;;;;;;;18.70;6.93;;;;;;;14.59;59.90;99807.78;4997246;28;20798;-81
2022/05/08 06:33:43;;;;;;;27.95;7.78;;;;;;;14.62;59.70;99812.66;5004829;28;20045;-81
2022/05/08 06:36:09;;;;;;;16.20;6.80;;;;;;;14.52;59.94;99820.59;5001394;28;20033;-81
2022/05/08 06:38:34;;;;;;;25.67;8.20;;;;;;;14.58;59.72;99817.72;4987954;28;20040;-81
2022/05/08 06:40:59;;;;;;;17.02;7.88;;;;;;;14.57;60.10;99824.16;5003520;28;20029;-81
2022/05/08 06:43:25;;;;;;;24.30;7.88;;;;;;;14.63;59.81;99820.47;5021382;28;20310;-81
2022/05/08 06:45:53;;;;;;;21.75;7.93;;;;;;;14.63;60.10;99816.97;5003376;28;20034;-81
2022/05/08 06:48:18;;;;;;;19.45;7.38;;;;;;;14.68;59.84;99823.19;5002816;28;20025;-81
2022/05/08 06:50:43;;;;;;;17.33;7.93;;;;;;;14.66;59.82;99816.44;4990582;28;20033;-81
2022/05/08 06:53:09;;;;;;;24.25;7.43;;;;;;;14.64;59.61;99824.78;4985000;28;20029;-81
2022/05/08 06:55:35;;;;;;;24.23;7.38;;;;;;;14.65;59.82;99817.53;5011648;28;20444;-80
2022/05/08 06:58:01;;;;;;;26.38;7.18;;;;;;;14.65;59.68;99817.53;5001105;28;20052;-81
2022/05/08 07:03:10;;;;;;;20.13;6.85;;;;;;;14.67;59.35;99826.97;5003133;28;20742;-80
2022/05/08 07:05:40;;;;;;;25.00;6.93;;;;;;;14.75;59.34;99828.38;4978423;28;20057;-80
2022/05/08 07:08:05;;;;;;;11.88;6.35;;;;;;;14.71;59.05;99828.09;5019859;28;20452;-81
2022/05/08 07:10:31;;;;;;;18.88;8.68;;;;;;;14.64;59.58;99827.47;5001332;28;20075;-81
2022/05/08 07:12:56;;;;;;;20.52;8.45;;;;;;;14.70;58.97;99833.72;4984532;28;20049;-81
2022/05/08 07:15:22;;;;;;;22.10;8.00;;;;;;;14.76;59.13;99835.41;5002750;28;20477;-81
2022/05/08 07:17:47;;;;;;;26.08;7.82;;;;;;;14.76;59.68;99836.22;4999675;28;20021;-81
2022/05/08 07:20:12;;;;;;;21.92;7.72;;;;;;;14.72;59.18;99828.91;5020420;28;20029;-81
2022/05/08 07:22:39;;;;;;;21.50;6.75;;;;;;;14.78;59.27;99831.41;4981504;28;20176;-81
2022/05/08 07:25:05;;;;;;;16.08;6.72;;;;;;;14.72;59.03;99835.06;5002040;28;20029;-81
2022/05/08 07:27:32;;;;;;;17.58;6.55;;;;;;;14.79;59.08;99841.06;4996581;28;20557;-81
2022/05/08 07:29:57;;;;;;;11.73;5.28;;;;;;;14.85;59.00;99837.38;5003905;28;20033;-81
2022/05/08 07:32:24;;;;;;;18.02;6.82;;;;;;;14.83;59.05;99838.72;4986200;28;20090;-81
2022/05/08 07:37:34;;;;;;;17.85;7.00;;;;;;;14.89;59.09;99825.06;5020656;28;20071;-81
2022/05/08 07:39:59;;;;;;;21.17;6.50;;;;;;;14.96;58.89;99825.66;5000173;28;20132;-81
2022/05/08 07:42:24;;;;;;;18.17;7.38;;;;;;;14.99;58.98;99833.25;5004689;28;20029;-81
2022/05/08 07:44:49;;;;;;;17.90;6.63;;;;;;;14.97;58.83;99827.31;5021360;28;20033;-81
2022/05/08 07:47:15;;;;;;;14.68;6.93;;;;;;;15.01;58.68;99831.09;4997807;28;20037;-81
2022/05/08 07:49:40;;;;;;;23.58;6.40;;;;;;;15.06;58.34;99824.97;5001370;28;20025;-81
2022/05/08 07:52:06;;;;;;;19.27;6.65;;;;;;;15.11;58.10;99826.91;4988588;28;22066;-81
2022/05/08 07:54:31;;;;;;;16.67;6.00;;;;;;;15.05;58.49;99827.94;5005702;28;20119;-81
2022/05/08 07:56:56;;;;;;;17.45;6.25;;;;;;;15.03;58.67;99828.16;4999694;28;20044;-81
2022/05/08 07:59:21;;;;;;;10.02;5.40;;;;;;;15.11;58.19;99822.34;5004747;28;20327;-81
2022/05/08 08:01:47;;;;;;;16.15;5.35;;;;;;;15.17;57.85;99824.00;4986117;28;20040;-81
2022/05/08 08:04:12;;;;;;;18.40;5.00;;;;;;;15.12;58.04;99828.50;5002404;28;20477;-81
2022/05/08 08:06:38;;;;;;;16.20;6.00;;;;;;;15.14;57.83;99813.75;5015469;28;20041;-82
2022/05/08 08:09:04;;;;;;;14.77;4.47;;;;;;;15.20;57.76;99825.38;5019975;28;20025;-81
2022/05/08 08:11:34;;;;;;;19.15;5.20;;;;;;;15.18;57.57;99822.16;5023730;28;20485;-81
2022/05/08 08:13:59;;;;;;;21.95;5.70;;;;;;;15.24;57.96;99827.31;5001878;28;20560;-81
2022/05/08 08:16:25;;;;;;;15.85;4.82;;;;;;;15.30;57.47;99836.22;4992494;28;20128;-81
2022/05/08 08:18:54;;;;;;;21.83;5.50;;;;;;;15.39;57.41;99837.41;5002015;28;20043;-81
2022/05/08 08:21:19;;;;;;;15.30;5.68;;;;;;;15.40;56.86;99830.94;4991359;28;20040;-82
2022/05/08 08:23:45;;;;;;;18.60;5.97;;;;;;;15.43;56.65;99844.72;5008902;28;20398;-82
2022/05/08 08:26:11;;;;;;;18.92;5.25;;;;;;;15.51;56.79;99846.13;4986734;28;20037;-81
2022/05/08 08:28:37;;;;;;;15.63;5.32;;;;;;;15.65;57.00;99850.03;5005602;28;20044;-82
2022/05/08 08:31:08;;;;;;;18.30;4.95;;;;;;;15.65;56.46;99850.03;5019305;28;20478;-82
2022/05/08 08:33:37;;;;;;;14.30;4.22;;;;;;;15.75;56.03;99845.53;4989202;28;20026;-81
2022/05/08 08:36:02;;;;;;;12.60;4.32;;;;;;;15.88;55.98;99862.34;4997185;28;20120;-81
2022/05/08 08:38:28;;;;;;;9.27;3.92;;;;;;;16.04;55.85;99858.66;5017889;28;20159;-81
2022/05/08 08:40:55;;;;;;;19.13;5.07;;;;;;;16.07;55.40;99853.59;5005615;28;20443;-81
2022/05/08 08:43:21;;;;;;;12.73;4.30;;;;;;;16.21;54.61;99857.44;5024637;28;20035;-81
2022/05/08 08:48:34;;;;;;;;;;;;;;;16.42;53.54;99859.16;5016300;28;20053;-81
2022/05/08 08:51:02;;;;;;;13.90;4.70;;;;;;;16.45;53.67;99865.91;5002107;28;19921;-81
2022/05/08 08:53:29;;;;;;;14.75;4.15;;;;;;;16.47;53.67;99869.97;4992363;28;20029;-80
2022/05/08 08:55:56;;;;;;;10.30;3.58;;;;;;;16.40;53.30;99869.41;4995915;28;20060;-81
2022/05/08 08:58:22;;;;;;;17.70;5.65;;;;;;;16.43;53.35;99868.88;5026168;28;20067;-81
2022/05/08 09:00:49;;;;;;;14.02;4.18;;;;;;;16.45;53.12;99868.63;5015667;28;20484;-81
2022/05/08 09:03:25;;;;;;;13.88;4.43;;;;;;;16.56;53.16;99861.41;4997112;28;20374;-81
2022/05/08 09:05:58;;;;;;;13.30;4.55;;;;;;;16.56;53.50;99873.03;5008599;28;20448;-81
2022/05/08 09:08:32;;;;;;;15.25;3.92;;;;;;;16.63;53.51;99862.81;5002790;28;20120;-81
2022/05/08 09:10:58;;;;;;;13.30;4.55;;;;;;;16.69;53.37;99871.72;4983885;28;20493;-81
2022/05/08 09:13:28;;;;;;;11.25;4.63;;;;;;;16.82;53.35;99871.28;5006593;28;20056;-81
2022/05/08 09:16:04;;;;;;;12.05;3.83;;;;;;;16.79;53.47;99874.47;5005421;28;20018;-81
2022/05/08 09:18:41;;;;;;;8.85;3.28;;;;;;;16.89;52.99;99874.50;5001354;28;20029;-81
2022/05/08 09:24:06;;;;;;;11.77;3.83;;;;;;;17.03;52.78;99864.84;5015095;28;20084;-80
2022/05/08 09:26:31;;;;;;;18.10;4.78;;;;;;;17.12;52.70;99864.06;5001574;28;20092;-80
2022/05/08 09:28:57;;;;;;;8.07;3.58;;;;;;;17.31;51.95;99875.19;4970658;28;20026;-80
2022/05/08 09:31:22;;;;;;;11.07;4.30;;;;;;;17.37;51.78;99874.09;4985130;28;20120;-80
2022/05/08 09:33:51;;;;;;;7.50;3.28;;;;;;;17.67;51.26;99870.69;4998606;28;20481;-80
2022/05/08 09:36:23;;;;;;;12.15;3.63;;;;;;;17.65;50.59;99862.00;5003082;28;20094;-81
2022/05/08 09:38:53;;;;;;;9.18;2.78;;;;;;;17.68;49.54;99861.47;5020919;28;20033;-81
2022/05/08 09:41:22;;;;;;;12.38;3.70;;;;;;;17.66;49.43;99863.63;5004228;28;20067;-81
2022/05/08 09:43:52;;;;;;;13.70;4.10;;;;;;;17.59;49.41;99863.91;5007234;28;20068;-80
2022/05/08 09:46:20;;;;;;;9.35;3.03;;;;;;;17.65;49.44;99859.31;5004286;28;20042;-80
2022/05/08 09:48:46;;;;;;;14.13;3.33;;;;;;;17.64;49.58;99852.31;5004383;28;20531;-80
2022/05/08 09:51:15;;;;;;;8.35;3.08;;;;;;;17.61;49.97;99856.34;5005720;28;20171;-80
2022/05/08 09:53:42;;;;;;;8.70;3.60;;;;;;;17.67;49.85;99857.16;5022350;28;20066;-81
2022/05/08 09:56:09;;;;;;;8.70;3.40;;;;;;;17.58;50.12;99854.19;5019585;28;20033;-81
2022/05/08 09:58:35;;;;;;;13.35;3.42;;;;;;;17.71;49.15;99853.63;4971308;28;20030;-81
2022/05/08 10:01:01;;;;;;;6.90;3.75;;;;;;;17.72;49.23;99849.06;5006501;28;20034;-81
2022/05/08 10:03:27;;;;;;;5.43;3.05;;;;;;;17.74;49.52;99853.09;5001899;28;20041;-81
2022/05/08 10:05:53;;;;;;;9.85;3.80;;;;;;;17.69;50.21;99853.09;4988570;28;20477;-82
2022/05/08 10:08:24;;;;;;;7.53;3.28;;;;;;;17.68;50.35;99854.19;4988858;28;20477;-81
2022/05/08 10:13:59;;;;;;;8.02;3.47;;;;;;;17.64;49.51;99858.53;5005751;28;20044;-82
2022/05/08 10:16:57;;;;;;;13.07;3.47;;;;;;;17.64;49.43;99849.59;5003342;28;20031;-81
2022/05/08 10:19:25;;;;;;;8.73;3.67;;;;;;;17.59;48.99;99863.91;5020521;28;20061;-81
2022/05/08 10:21:59;;;;;;;9.73;4.40;;;;;;;17.60;48.99;99859.31;5011454;28;20051;-81
2022/05/08 10:24:46;;;;;;;6.72;2.60;;;;;;;17.64;48.48;99858.53;5010611;28;20025;-81
2022/05/08 10:27:11;;;;;;;;;;;;;;;17.66;48.81;99852.84;5016720;28;20493;-81
2022/05/08 10:29:49;;;;;;;8.50;2.77;;;;;;;17.70;48.24;99854.72;5006374;28;19945;-81
2022/05/08 10:32:47;;;;;;;6.88;3.38;;;;;;;17.71;48.19;99858.25;5001992;28;20486;-81
2022/05/08 10:35:16;;;;;;;10.85;3.30;;;;;;;17.73;47.57;99848.81;4974976;28;20037;-81
2022/05/08 10:37:46;;;;;;;5.07;2.65;;;;;;;17.70;46.45;99845.81;4989013;28;20071;-81
2022/05/08 10:40:24;;;;;;;8.27;3.50;;;;;;;17.63;47.13;99851.47;5021759;28;20374;-81
2022/05/08 10:42:52;;;;;;;7.88;2.70;;;;;;;17.65;47.19;99854.72;5008376;28;20037;-81
2022/05/08 10:45:41;;;;;;;7.63;3.10;;;;;;;17.73;47.02;99851.50;5011019;28;20124;-81
2022/05/08 10:48:07;;;;;;;6.60;3.47;;;;;;;17.83;46.77;99845.28;5023335;28;20036;-81
2022/05/08 10:50:36;;;;;;;5.05;3.15;;;;;;;17.94;46.22;99841.47;5005438;28;20486;-80
2022/05/08 10:53:02;;;;;;;5.80;2.83;;;;;;;17.99;46.43;99836.09;4993454;28;20478;-81
2022/05/08 10:55:28;;;;;;;7.90;2.92;;;;;;;18.12;45.53;99834.69;5008099;28;20029;-80
2022/05/08 10:57:54;;;;;;;10.70;2.88;;;;;;;18.33;46.02;99838.97;5004098;28;20041;-80
2022/05/08 11:00:20;;;;;;;8.95;3.78;;;;;;;18.54;44.88;99841.34;5024516;28;20466;-80
2022/05/08 11:02:54;;;;;;;9.40;2.45;;;;;;;18.66;43.56;99830.22;5024557;28;20061;-80
2022/05/08 11:05:24;;;;;;;12.35;3.28;;;;;;;19.00;43.50;99836.53;5022706;28;20033;-80
2022/05/08 11:07:51;;;;;;;10.25;2.45;;;;;;;19.29;41.11;99845.59;5000521;28;20030;-80
2022/05/08 11:10:24;;;;;;;7.82;2.60;;;;;;;19.55;42.36;99837.31;5005092;28;20033;-79
2022/05/08 11:13:10;;;;;;;12.25;2.85;;;;;;;19.79;40.84;99836.28;5004639;28;20485;-80
2022/05/08 11:15:37;;;;;;;7.88;2.00;;;;;;;19.85;40.76;99834.34;5002802;28;20036;-80
2022/05/08 11:18:12;;;;;;;4.82;1.98;;;;;;;19.98;40.65;99836.41;5001656;28;20041;-80
2022/05/08 11:20:44;;;;;;;4.93;2.00;;;;;;;19.97;39.33;99837.47;5017966;28;20107;-80
2022/05/08 11:23:13;;;;;;;3.65;1.95;;;;;;;20.05;38.53;99836.88;5020292;28;20128;-79
2022/05/08 11:25:39;;;;;;;7.15;2.13;;;;;;;20.24;39.19;99835.09;4976559;28;21590;-80
2022/05/08 11:28:04;;;;;;;3.70;1.92;;;;;;;20.23;38.04;99838.06;5011639;28;20075;-80
2022/05/08 11:30:35;;;;;;;4.65;2.42;;;;;;;20.35;38.16;99835.78;5011144;28;20029;-80
2022/05/08 11:36:05;;;;;;;6.35;1.95;;;;;;;20.53;38.57;99829.63;5027975;28;20063;-80
2022/05/08 11:38:50;;;;;;;2.35;1.45;;;;;;;20.67;37.23;99835.94;5005477;28;20025;-80
2022/05/08 11:41:20;;;;;;;5.20;1.88;;;;;;;20.83;38.09;99850.94;5030846;28;20115;-80
2022/05/08 11:43:50;;;;;;;4.55;2.10;;;;;;;20.82;38.53;99833.03;5028900;28;20052;-80
2022/05/08 11:46:17;;;;;;;3.95;1.90;;;;;;;21.01;38.56;99838.50;5026020;28;20493;-80
2022/05/08 11:48:47;;;;;;;9.48;1.80;;;;;;;20.97;38.69;99840.97;4995129;28;20477;-80
2022/05/08 11:51:15;;;;;;;3.63;1.80;;;;;;;21.08;38.19;99833.53;5025070;28;20051;-80
2022/05/08 11:53:52;;;;;;;3.22;1.73;;;;;;;21.13;38.52;99830.75;4994673;28;20485;-80